createdAt,value
2017-11-25T00:01:41.851Z,6.43
2017-11-25T00:04:09.278Z,7.37
2017-11-25T00:06:36.731Z,7.10
2017-11-25T00:09:04.175Z,6.23
2017-11-25T00:11:31.607Z,7.37
2017-11-25T00:13:59.042Z,5.40
2017-11-25T00:16:26.470Z,6.33
2017-11-25T00:18:53.922Z,5.67
2017-11-25T00:21:21.350Z,6.10
2017-11-25T00:23:48.777Z,6.07
2017-11-25T00:26:16.214Z,5.30
2017-11-25T00:28:43.633Z,5.20
2017-11-25T00:31:11.081Z,5.00
2017-11-25T00:33:38.505Z,5.60
2017-11-25T00:36:06.181Z,5.07
2017-11-25T00:38:33.611Z,6.00
2017-11-25T00:41:01.048Z,4.63
2017-11-25T00:43:28.485Z,5.20
2017-11-25T00:45:55.910Z,5.43
2017-11-25T00:48:23.353Z,5.23
2017-11-25T00:50:50.778Z,4.90
2017-11-25T00:53:18.231Z,5.33
2017-11-25T00:55:45.654Z,5.90
2017-11-25T00:58:13.082Z,5.37
2017-11-25T01:00:40.527Z,5.00
2017-11-25T01:03:07.955Z,4.77
2017-11-25T01:05:35.394Z,5.20
2017-11-25T01:08:02.829Z,5.70
2017-11-25T01:10:30.271Z,5.53
2017-11-25T01:12:57.694Z,5.60
2017-11-25T01:15:25.117Z,5.70
2017-11-25T01:17:52.551Z,5.20
2017-11-25T01:20:19.976Z,5.20
2017-11-25T01:22:47.424Z,5.13
2017-11-25T01:25:14.858Z,6.07
2017-11-25T01:27:42.299Z,5.57
2017-11-25T01:30:09.738Z,6.00
2017-11-25T01:32:37.159Z,5.67
2017-11-25T01:35:04.606Z,6.40
2017-11-25T01:37:32.030Z,5.60
2017-11-25T01:39:59.470Z,5.00
2017-11-25T01:42:26.917Z,5.87
2017-11-25T01:44:54.362Z,5.00
2017-11-25T01:47:21.788Z,5.37
2017-11-25T01:49:49.223Z,5.37
2017-11-25T01:52:16.706Z,5.13
2017-11-25T01:54:44.182Z,4.77
2017-11-25T01:57:11.630Z,5.30
2017-11-25T01:59:39.058Z,5.03
2017-11-25T02:02:06.478Z,5.50
2017-11-25T02:04:33.921Z,5.00
2017-11-25T02:07:01.346Z,5.33
2017-11-25T02:09:28.782Z,5.00
2017-11-25T02:11:56.213Z,4.63
2017-11-25T02:14:23.646Z,4.80
2017-11-25T02:16:51.066Z,5.10
2017-11-25T02:19:18.504Z,4.77
2017-11-25T02:21:45.921Z,5.73
2017-11-25T02:24:13.349Z,5.30
2017-11-25T02:26:40.791Z,5.63
2017-11-25T02:29:08.205Z,4.97
2017-11-25T02:31:35.638Z,4.93
2017-11-25T02:34:03.063Z,4.40
2017-11-25T02:36:30.494Z,4.73
2017-11-25T02:38:57.936Z,4.80
2017-11-25T02:41:25.365Z,5.47
2017-11-25T02:43:52.796Z,4.83
2017-11-25T02:46:20.217Z,4.90
2017-11-25T02:48:47.647Z,4.60
2017-11-25T02:51:15.086Z,5.17
2017-11-25T02:53:42.506Z,4.40
2017-11-25T02:56:09.942Z,4.73
2017-11-25T02:58:37.362Z,4.40
2017-11-25T03:01:04.782Z,5.47
2017-11-25T03:03:32.218Z,5.27
2017-11-25T03:05:59.641Z,4.90
2017-11-25T03:08:27.082Z,5.50
2017-11-25T03:10:54.505Z,5.63
2017-11-25T03:13:21.935Z,6.13
2017-11-25T03:15:49.369Z,6.83
2017-11-25T03:18:16.798Z,5.40
2017-11-25T03:20:44.230Z,5.00
2017-11-25T03:23:11.658Z,5.50
2017-11-25T03:25:39.079Z,4.93
2017-11-25T03:28:06.514Z,5.40
2017-11-25T03:30:33.937Z,5.97
2017-11-25T03:33:01.372Z,5.27
2017-11-25T03:35:28.820Z,6.33
2017-11-25T03:37:56.245Z,6.53
2017-11-25T03:40:23.686Z,6.57
2017-11-25T03:42:51.123Z,7.00
2017-11-25T03:45:18.563Z,5.50
2017-11-25T03:47:45.990Z,6.07
2017-11-25T03:50:13.419Z,6.80
2017-11-25T03:52:40.863Z,6.63
2017-11-25T03:55:08.281Z,5.10
2017-11-25T03:57:35.726Z,5.87
2017-11-25T04:00:03.145Z,5.27
2017-11-25T04:02:30.578Z,6.43
2017-11-25T04:04:58.031Z,6.40
2017-11-25T04:07:25.462Z,7.70
2017-11-25T04:09:52.901Z,9.50
2017-11-25T04:12:20.338Z,9.13
2017-11-25T04:14:47.778Z,10.27
2017-11-25T04:17:15.221Z,9.90
2017-11-25T04:19:42.654Z,10.07
2017-11-25T04:22:10.107Z,12.30
2017-11-25T04:24:37.538Z,10.03
2017-11-25T04:27:04.982Z,7.50
2017-11-25T04:29:32.411Z,7.60
2017-11-25T04:31:59.853Z,7.20
2017-11-25T04:34:27.310Z,6.37
2017-11-25T04:36:54.739Z,6.80
2017-11-25T04:39:22.186Z,5.53
2017-11-25T04:41:49.614Z,5.50
2017-11-25T04:44:17.043Z,4.23
2017-11-25T04:46:44.490Z,4.47
2017-11-25T04:49:11.911Z,4.80
2017-11-25T04:51:39.345Z,3.83
2017-11-25T04:54:06.765Z,4.87
2017-11-25T04:56:34.190Z,5.07
2017-11-25T04:59:01.626Z,4.47
2017-11-25T05:01:29.047Z,4.67
2017-11-25T05:03:56.494Z,5.63
2017-11-25T05:06:23.926Z,4.47
2017-11-25T05:08:51.355Z,4.73
2017-11-25T05:11:18.790Z,5.20
2017-11-25T05:13:46.219Z,4.67
2017-11-25T05:16:13.653Z,5.00
2017-11-25T05:18:41.078Z,5.80
2017-11-25T05:21:08.503Z,5.97
2017-11-25T05:23:35.940Z,6.00
2017-11-25T05:26:03.367Z,7.13
2017-11-25T05:28:30.807Z,6.47
2017-11-25T05:30:58.228Z,7.40
2017-11-25T05:33:25.687Z,7.30
2017-11-25T05:35:53.121Z,6.70
2017-11-25T05:38:20.542Z,7.37
2017-11-25T05:40:47.994Z,8.57
2017-11-25T05:43:15.427Z,8.60
2017-11-25T05:45:42.850Z,7.97
2017-11-25T05:48:10.312Z,8.30
2017-11-25T05:50:37.743Z,8.30
2017-11-25T05:53:05.187Z,7.90
2017-11-25T05:55:32.618Z,6.73
2017-11-25T05:58:00.045Z,6.20
2017-11-25T06:00:27.478Z,5.90
2017-11-25T06:02:54.902Z,5.47
2017-11-25T06:05:22.339Z,5.40
2017-11-25T06:07:49.761Z,5.43
2017-11-25T06:10:17.183Z,5.40
2017-11-25T06:12:44.618Z,5.60
2017-11-25T06:15:12.038Z,4.80
2017-11-25T06:17:39.473Z,3.60
2017-11-25T06:20:06.895Z,4.30
2017-11-25T06:22:34.310Z,3.57
2017-11-25T06:25:01.743Z,3.70
2017-11-25T06:27:29.157Z,2.97
2017-11-25T06:29:56.594Z,3.77
2017-11-25T06:32:24.009Z,3.30
2017-11-25T06:34:51.450Z,3.73
2017-11-25T06:37:18.886Z,3.50
2017-11-25T06:39:46.306Z,4.30
2017-11-25T06:42:13.739Z,4.07
2017-11-25T06:44:41.179Z,3.80
2017-11-25T06:47:08.622Z,4.00
2017-11-25T06:49:36.033Z,3.60
2017-11-25T06:52:03.459Z,4.10
2017-11-25T06:54:30.881Z,3.63
2017-11-25T06:56:58.303Z,3.70
2017-11-25T06:59:25.738Z,3.70
2017-11-25T07:01:53.165Z,3.83
2017-11-25T07:04:20.582Z,3.50
2017-11-25T07:06:48.026Z,3.60
2017-11-25T07:09:15.454Z,3.50
2017-11-25T07:11:42.915Z,3.73
2017-11-25T07:14:10.334Z,3.43
2017-11-25T07:16:37.759Z,3.37
2017-11-25T07:19:05.202Z,3.60
2017-11-25T07:21:32.622Z,3.13
2017-11-25T07:24:00.090Z,3.75
2017-11-25T07:26:27.506Z,3.40
2017-11-25T07:28:54.925Z,3.87
2017-11-25T07:31:22.352Z,3.77
2017-11-25T07:33:49.776Z,3.93
2017-11-25T07:36:17.206Z,3.50
2017-11-25T07:38:44.635Z,4.07
2017-11-25T07:41:12.070Z,5.20
2017-11-25T07:43:39.502Z,4.03
2017-11-25T07:46:06.922Z,4.27
2017-11-25T07:48:34.354Z,3.80
2017-11-25T07:51:01.774Z,4.67
2017-11-25T07:53:29.214Z,4.07
2017-11-25T07:55:56.679Z,3.97
2017-11-25T07:58:24.116Z,4.33
2017-11-25T08:00:51.545Z,4.00
2017-11-25T08:03:18.973Z,4.00
2017-11-25T08:05:46.404Z,4.10
2017-11-25T08:08:13.833Z,4.43
2017-11-25T08:10:41.270Z,4.27
2017-11-25T08:13:08.701Z,4.20
2017-11-25T08:15:36.121Z,4.77
2017-11-25T08:18:03.554Z,3.80
2017-11-25T08:20:30.973Z,3.80
2017-11-25T08:22:58.404Z,4.57
2017-11-25T08:25:26.121Z,3.90
2017-11-25T08:27:53.543Z,3.40
2017-11-25T08:30:21.005Z,3.80
2017-11-25T08:32:48.422Z,3.90
2017-11-25T08:35:15.862Z,3.80
2017-11-25T08:37:43.302Z,3.75
2017-11-25T08:40:10.731Z,3.75
2017-11-25T08:42:38.179Z,3.92
2017-11-25T08:45:05.615Z,3.60
2017-11-25T08:47:33.039Z,2.62
2017-11-25T08:50:02.561Z,3.50
2017-11-25T08:52:30.074Z,3.35
2017-11-25T08:54:57.554Z,3.37
2017-11-25T08:57:25.006Z,3.45
2017-11-25T08:59:52.530Z,3.50
2017-11-25T09:02:19.977Z,3.33
2017-11-25T09:04:47.411Z,3.00
2017-11-25T09:07:14.862Z,3.00
2017-11-25T09:09:42.470Z,3.65
2017-11-25T09:12:09.893Z,3.15
2017-11-25T09:14:37.333Z,3.62
2017-11-25T09:17:04.799Z,3.80
2017-11-25T09:19:32.251Z,3.10
2017-11-25T09:22:02.723Z,4.40
2017-11-25T09:24:34.763Z,4.45
2017-11-25T09:27:02.725Z,4.10
2017-11-25T09:29:30.798Z,4.03
2017-11-25T09:31:58.237Z,4.05
2017-11-25T09:34:25.826Z,3.50
2017-11-25T09:36:53.266Z,4.57
2017-11-25T09:39:20.689Z,3.90
2017-11-25T09:41:48.119Z,3.90
2017-11-25T09:44:15.676Z,3.15
2017-11-25T09:46:45.076Z,3.50
2017-11-25T09:49:12.558Z,3.20
2017-11-25T09:51:40.075Z,3.40
2017-11-25T09:54:07.508Z,3.33
2017-11-25T09:56:34.950Z,2.75
2017-11-25T09:59:02.386Z,3.33
2017-11-25T10:01:32.097Z,3.37
2017-11-25T10:04:00.087Z,3.37
2017-11-25T10:06:27.526Z,2.67
2017-11-25T10:08:54.967Z,3.60
2017-11-25T10:11:22.398Z,3.28
2017-11-25T10:13:49.839Z,3.28
2017-11-25T10:16:17.302Z,3.70
2017-11-25T10:18:44.845Z,3.20
2017-11-25T10:21:12.303Z,3.60
2017-11-25T10:23:39.733Z,3.25
2017-11-25T10:26:07.177Z,5.72
2017-11-25T10:28:34.609Z,3.55
2017-11-25T10:31:02.062Z,3.85
2017-11-25T10:33:29.490Z,3.25
2017-11-25T10:35:56.926Z,3.50
2017-11-25T10:38:24.366Z,4.07
2017-11-25T10:40:51.829Z,3.45
2017-11-25T10:43:19.249Z,3.90
2017-11-25T10:45:46.687Z,3.90
2017-11-25T10:48:14.113Z,3.47
2017-11-25T10:50:41.554Z,3.70
2017-11-25T10:53:08.990Z,4.22
2017-11-25T10:55:36.438Z,3.58
2017-11-25T10:58:03.866Z,3.23
2017-11-25T11:00:31.306Z,3.80
2017-11-25T11:02:58.742Z,3.40
2017-11-25T11:05:26.162Z,3.30
2017-11-25T11:07:53.610Z,3.65
2017-11-25T11:10:21.034Z,2.90
2017-11-25T11:12:48.453Z,2.90
2017-11-25T11:15:15.890Z,2.90
2017-11-25T11:17:43.322Z,2.90
2017-11-25T11:20:10.770Z,2.70
2017-11-25T11:22:38.203Z,2.85
2017-11-25T11:25:05.642Z,3.05
2017-11-25T11:27:33.077Z,3.35
2017-11-25T11:30:00.506Z,2.83
2017-11-25T11:32:27.955Z,2.97
2017-11-25T11:34:55.378Z,3.15
2017-11-25T11:37:22.806Z,3.20
2017-11-25T11:39:50.249Z,3.00
2017-11-25T11:42:17.689Z,2.90
2017-11-25T11:44:45.125Z,2.70
2017-11-25T11:47:12.561Z,2.85
2017-11-25T11:49:41.983Z,3.30
2017-11-25T11:52:09.418Z,2.78
2017-11-25T11:54:36.889Z,3.00
2017-11-25T11:57:05.363Z,3.17
2017-11-25T11:59:32.814Z,2.70
2017-11-25T12:02:00.268Z,3.10
2017-11-25T12:04:27.718Z,3.00
2017-11-25T12:06:55.569Z,3.40
2017-11-25T12:09:23.021Z,3.35
2017-11-25T12:11:51.194Z,3.45
2017-11-25T12:14:18.619Z,3.70
2017-11-25T12:16:46.183Z,3.35
2017-11-25T12:19:13.614Z,3.47
2017-11-25T12:21:41.142Z,3.40
2017-11-25T12:24:08.559Z,3.20
2017-11-25T12:26:35.986Z,3.15
2017-11-25T12:29:03.422Z,3.35
2017-11-25T12:31:30.850Z,3.42
2017-11-25T12:33:58.289Z,3.78
2017-11-25T12:36:25.717Z,3.27
2017-11-25T12:38:54.878Z,3.40
2017-11-25T12:41:22.306Z,3.30
2017-11-25T12:43:49.737Z,4.50
2017-11-25T12:46:17.185Z,3.72
2017-11-25T12:48:44.622Z,4.30
2017-11-25T12:51:12.343Z,3.40
2017-11-25T12:53:40.350Z,5.40
2017-11-25T12:56:07.798Z,4.57
2017-11-25T12:58:35.243Z,3.55
2017-11-25T13:01:02.670Z,3.60
2017-11-25T13:03:30.137Z,3.73
2017-11-25T13:05:57.627Z,3.20
2017-11-25T13:08:25.052Z,2.87
2017-11-25T13:10:52.495Z,3.50
2017-11-25T13:13:19.930Z,3.45
2017-11-25T13:15:47.394Z,3.57
2017-11-25T13:18:14.884Z,2.97
2017-11-25T13:20:42.380Z,3.20
2017-11-25T13:23:09.831Z,2.70
2017-11-25T13:25:37.255Z,2.90
2017-11-25T13:28:04.688Z,3.10
2017-11-25T13:30:32.123Z,3.07
2017-11-25T13:32:59.542Z,3.50
2017-11-25T13:35:26.990Z,3.30
2017-11-25T13:37:54.410Z,3.60
2017-11-25T13:40:21.848Z,3.70
2017-11-25T13:42:49.278Z,3.40
2017-11-25T13:45:16.714Z,3.60
2017-11-25T13:47:44.166Z,3.47
2017-11-25T13:50:11.590Z,4.07
2017-11-25T13:52:39.010Z,2.90
2017-11-25T13:55:06.445Z,4.10
2017-11-25T13:57:33.871Z,2.87
2017-11-25T14:00:01.315Z,3.33
2017-11-25T14:02:28.746Z,3.60
2017-11-25T14:04:56.166Z,3.20
2017-11-25T14:07:23.603Z,3.10
2017-11-25T14:09:51.021Z,3.20
2017-11-25T14:12:18.454Z,3.30
2017-11-25T14:14:45.879Z,2.97
2017-11-25T14:17:13.298Z,3.97
2017-11-25T14:19:40.722Z,3.13
2017-11-25T14:22:08.143Z,3.50
2017-11-25T14:24:35.578Z,3.30
2017-11-25T14:27:02.998Z,3.50
2017-11-25T14:29:30.414Z,3.50
2017-11-25T14:31:57.837Z,3.40
2017-11-25T14:34:25.253Z,3.90
2017-11-25T14:36:52.791Z,3.53
2017-11-25T14:39:20.206Z,3.40
2017-11-25T14:41:47.639Z,3.60
2017-11-25T14:44:15.084Z,3.08
2017-11-25T14:46:42.518Z,3.58
2017-11-25T14:49:09.966Z,3.20
2017-11-25T14:51:37.398Z,3.75
2017-11-25T14:54:04.828Z,4.30
2017-11-25T14:56:32.268Z,4.28
2017-11-25T14:58:59.760Z,3.60
2017-11-25T15:01:27.207Z,3.58
2017-11-25T15:03:54.644Z,3.50
2017-11-25T15:06:22.057Z,3.27
2017-11-25T15:08:49.501Z,3.50
2017-11-25T15:11:16.931Z,3.58
2017-11-25T15:13:44.365Z,3.30
2017-11-25T15:16:11.798Z,3.50
2017-11-25T15:18:39.232Z,3.72
2017-11-25T15:21:06.662Z,3.33
2017-11-25T15:23:34.093Z,3.45
2017-11-25T15:26:01.525Z,3.22
2017-11-25T15:28:28.958Z,3.20
2017-11-25T15:30:56.383Z,2.97
2017-11-25T15:33:23.833Z,3.15
2017-11-25T15:35:51.254Z,3.20
2017-11-25T15:38:18.703Z,3.20
2017-11-25T15:40:46.218Z,3.60
2017-11-25T15:43:13.638Z,2.95
2017-11-25T15:45:41.081Z,2.53
2017-11-25T15:48:08.514Z,3.42
2017-11-25T15:50:35.952Z,4.65
2017-11-25T15:53:03.391Z,3.20
2017-11-25T15:55:30.818Z,2.83
2017-11-25T15:57:58.256Z,2.70
2017-11-25T16:00:25.682Z,2.75
2017-11-25T16:02:53.113Z,2.90
2017-11-25T16:05:20.550Z,2.67
2017-11-25T16:07:47.973Z,2.90
2017-11-25T16:10:15.413Z,2.90
2017-11-25T16:12:42.836Z,2.75
2017-11-25T16:15:10.278Z,3.17
2017-11-25T16:17:37.725Z,2.92
2017-11-25T16:20:05.163Z,2.70
2017-11-25T16:22:32.601Z,3.00
2017-11-25T16:25:00.062Z,3.60
2017-11-25T16:27:27.501Z,2.75
2017-11-25T16:29:54.921Z,3.45
2017-11-25T16:32:22.378Z,3.50
2017-11-25T16:34:49.814Z,3.28
2017-11-25T16:37:17.246Z,3.25
2017-11-25T16:39:44.683Z,3.40
2017-11-25T16:42:12.109Z,3.47
2017-11-25T16:44:39.557Z,3.60
2017-11-25T16:47:06.985Z,3.50
2017-11-25T16:49:34.410Z,3.45
2017-11-25T16:52:01.842Z,3.03
2017-11-25T16:54:29.273Z,3.30
2017-11-25T16:56:56.716Z,3.28
2017-11-25T16:59:24.148Z,3.50
2017-11-25T17:01:51.578Z,3.58
2017-11-25T17:04:19.030Z,3.47
2017-11-25T17:06:46.456Z,3.78
2017-11-25T17:09:13.905Z,3.30
2017-11-25T17:11:41.330Z,4.00
2017-11-25T17:14:08.762Z,5.05
2017-11-25T17:16:36.199Z,4.40
2017-11-25T17:19:03.627Z,4.15
2017-11-25T17:21:31.078Z,4.37
2017-11-25T17:23:59.320Z,4.30
2017-11-25T17:26:26.745Z,5.70
2017-11-25T17:28:54.188Z,5.90
2017-11-25T17:31:21.566Z,5.70
2017-11-25T17:33:49.034Z,7.15
2017-11-25T17:36:16.455Z,7.60
2017-11-25T17:38:43.894Z,7.90
2017-11-25T17:41:11.320Z,8.30
2017-11-25T17:43:38.742Z,8.20
2017-11-25T17:46:06.181Z,8.90
2017-11-25T17:48:33.635Z,10.07
2017-11-25T17:51:01.066Z,11.30
2017-11-25T17:53:28.493Z,12.00
2017-11-25T17:55:55.943Z,13.30
2017-11-25T17:58:23.371Z,14.30
2017-11-25T18:00:50.801Z,14.90
2017-11-25T18:03:18.242Z,15.98
2017-11-25T18:05:45.675Z,17.17
2017-11-25T18:08:13.118Z,17.73
2017-11-25T18:10:40.550Z,17.90
2017-11-25T18:13:07.995Z,18.40
2017-11-25T18:15:35.442Z,19.85
2017-11-25T18:18:02.875Z,20.20
2017-11-25T18:20:30.318Z,20.95
2017-11-25T18:22:57.745Z,23.33
2017-11-25T18:25:25.203Z,20.90
2017-11-25T18:27:52.641Z,22.62
2017-11-25T18:30:20.077Z,22.25
2017-11-25T18:32:47.521Z,23.38
2017-11-25T18:35:14.950Z,23.90
2017-11-25T18:37:42.398Z,22.52
2017-11-25T18:40:09.835Z,23.40
2017-11-25T18:42:37.272Z,24.77
2017-11-25T18:45:04.716Z,23.75
2017-11-25T18:47:32.146Z,23.90
2017-11-25T18:49:59.597Z,24.48
2017-11-25T18:52:27.047Z,25.35
2017-11-25T18:54:54.497Z,24.42
2017-11-25T18:57:21.942Z,25.62
2017-11-25T18:59:49.381Z,25.60
2017-11-25T19:02:16.826Z,25.70
2017-11-25T19:04:44.258Z,26.00
2017-11-25T19:07:11.712Z,28.85
2017-11-25T19:09:39.146Z,27.20
2017-11-25T19:12:06.575Z,27.58
2017-11-25T19:14:34.028Z,28.48
2017-11-25T19:17:01.458Z,28.55
2017-11-25T19:19:28.910Z,26.80
2017-11-25T19:21:56.350Z,27.25
2017-11-25T19:24:23.782Z,27.23
2017-11-25T19:26:51.230Z,27.45
2017-11-25T19:29:18.666Z,29.37
2017-11-25T19:31:46.110Z,27.25
2017-11-25T19:34:13.547Z,27.92
2017-11-25T19:36:40.973Z,26.37
2017-11-25T19:39:08.422Z,27.42
2017-11-25T19:41:35.851Z,25.75
2017-11-25T19:44:03.297Z,27.10
2017-11-25T19:46:30.755Z,27.87
2017-11-25T19:48:58.196Z,25.40
2017-11-25T19:51:25.642Z,23.83
2017-11-25T19:53:53.071Z,24.20
2017-11-25T19:56:20.523Z,26.50
2017-11-25T19:58:47.958Z,22.27
2017-11-25T20:01:15.402Z,24.45
2017-11-25T20:03:42.855Z,26.73
2017-11-25T20:06:10.319Z,21.23
2017-11-25T20:08:37.745Z,22.05
2017-11-25T20:11:05.187Z,22.33
2017-11-25T20:13:32.625Z,21.90
2017-11-25T20:16:00.065Z,23.55
2017-11-25T20:18:27.506Z,24.65
2017-11-25T20:20:54.948Z,22.65
2017-11-25T20:23:22.394Z,21.48
2017-11-25T20:25:49.824Z,21.67
2017-11-25T20:28:17.262Z,20.73
2017-11-25T20:30:44.711Z,20.67
2017-11-25T20:33:12.148Z,20.40
2017-11-25T20:35:39.603Z,20.05
2017-11-25T20:38:07.038Z,22.37
2017-11-25T20:40:34.465Z,20.77
2017-11-25T20:43:01.909Z,21.45
2017-11-25T20:45:29.350Z,21.75
2017-11-25T20:47:56.799Z,22.05
2017-11-25T20:50:24.230Z,23.25
2017-11-25T20:52:51.663Z,23.08
2017-11-25T20:55:19.110Z,24.37
2017-11-25T20:57:46.556Z,21.87
2017-11-25T21:00:13.994Z,22.73
2017-11-25T21:02:41.432Z,22.90
2017-11-25T21:05:08.862Z,23.27
2017-11-25T21:07:36.306Z,22.98
2017-11-25T21:10:03.764Z,23.50
2017-11-25T21:12:31.216Z,23.25
2017-11-25T21:14:58.645Z,23.95
2017-11-25T21:17:26.086Z,23.80
2017-11-25T21:19:53.526Z,21.77
2017-11-25T21:22:20.958Z,22.73
2017-11-25T21:24:48.414Z,22.13
2017-11-25T21:27:15.850Z,21.75
2017-11-25T21:29:43.288Z,22.35
2017-11-25T21:32:10.734Z,20.83
2017-11-25T21:34:38.178Z,21.20
2017-11-25T21:37:05.626Z,21.40
2017-11-25T21:39:33.062Z,22.30
2017-11-25T21:42:00.506Z,21.00
2017-11-25T21:44:27.945Z,20.52
2017-11-25T21:46:55.500Z,21.52
2017-11-25T21:49:22.970Z,20.75
2017-11-25T21:51:50.433Z,18.77
2017-11-25T21:54:19.872Z,16.27
2017-11-25T21:56:47.395Z,16.77
2017-11-25T21:59:14.850Z,15.65
2017-11-25T22:01:42.291Z,14.80
2017-11-25T22:04:09.731Z,15.00
2017-11-25T22:06:37.172Z,14.70
2017-11-25T22:09:04.619Z,15.57
2017-11-25T22:11:32.053Z,16.30
2017-11-25T22:13:59.498Z,15.60
2017-11-25T22:16:26.930Z,15.88
2017-11-25T22:18:54.378Z,15.25
2017-11-25T22:21:21.821Z,15.50
2017-11-25T22:23:49.263Z,15.70
2017-11-25T22:26:16.702Z,17.50
2017-11-25T22:28:44.143Z,17.65
2017-11-25T22:31:11.598Z,16.45
2017-11-25T22:33:39.029Z,16.08
2017-11-25T22:36:11.359Z,15.80
2017-11-25T22:38:38.792Z,16.23
2017-11-25T22:41:06.250Z,15.60
2017-11-25T22:43:33.884Z,16.87
2017-11-25T22:46:04.453Z,17.45
2017-11-25T22:48:31.903Z,17.20
2017-11-25T22:50:59.340Z,17.48
2017-11-25T22:53:26.796Z,17.37
2017-11-25T22:55:54.898Z,17.12
2017-11-25T22:58:22.611Z,18.02
2017-11-25T23:00:50.067Z,16.77
2017-11-25T23:03:17.494Z,15.68
2017-11-25T23:05:50.466Z,14.40
2017-11-25T23:08:17.902Z,14.90
2017-11-25T23:10:45.352Z,14.63
2017-11-25T23:13:12.790Z,13.70
2017-11-25T23:15:40.227Z,13.57
2017-11-25T23:18:07.667Z,14.00
2017-11-25T23:20:35.093Z,14.20
2017-11-25T23:23:02.546Z,14.80
2017-11-25T23:25:29.983Z,15.02
2017-11-25T23:27:57.415Z,15.90
2017-11-25T23:30:24.854Z,15.00
2017-11-25T23:32:52.295Z,13.25
2017-11-25T23:35:19.755Z,13.85
2017-11-25T23:37:47.193Z,15.02
2017-11-25T23:40:14.622Z,12.73
2017-11-25T23:42:42.071Z,12.37
2017-11-25T23:45:09.589Z,12.95
2017-11-25T23:47:37.026Z,13.77
2017-11-25T23:50:04.494Z,10.73
2017-11-25T23:52:31.926Z,11.05
2017-11-25T23:54:59.367Z,10.40
2017-11-25T23:57:26.789Z,9.60
2017-11-25T23:59:54.238Z,9.43
